sensor_id;sensor_type;location;lat;lon;timestamp;P1;durP1;ratioP1;P2;durP2;ratioP2
1004;SDS011;491;53.480;10.174;2022-11-20T00:01:55;3.93;;;1.80;;
1004;SDS011;491;53.480;10.174;2022-11-20T00:04:21;4.07;;;2.50;;
1004;SDS011;491;53.480;10.174;2022-11-20T00:06:47;4.07;;;1.93;;
1004;SDS011;491;53.480;10.174;2022-11-20T00:09:13;5.50;;;2.30;;
1004;SDS011;491;53.480;10.174;2022-11-20T00:11:38;5.20;;;3.00;;
1004;SDS011;491;53.480;10.174;2022-11-20T00:14:04;3.50;;;1.83;;
1004;SDS011;491;53.480;10.174;2022-11-20T00:16:31;2.63;;;1.53;;
1004;SDS011;491;53.480;10.174;2022-11-20T00:18:58;4.93;;;2.23;;
1004;SDS011;491;53.480;10.174;2022-11-20T00:21:24;3.37;;;2.90;;
1004;SDS011;491;53.480;10.174;2022-11-20T00:23:51;4.90;;;2.30;;
1004;SDS011;491;53.480;10.174;2022-11-20T00:26:18;3.97;;;3.00;;
1004;SDS011;491;53.480;10.174;2022-11-20T00:28:48;4.93;;;2.20;;
1004;SDS011;491;53.480;10.174;2022-11-20T00:31:14;3.70;;;3.00;;
1004;SDS011;491;53.480;10.174;2022-11-20T00:33:41;3.47;;;2.30;;
1004;SDS011;491;53.480;10.174;2022-11-20T00:36:08;2.63;;;1.70;;
1004;SDS011;491;53.480;10.174;2022-11-20T00:38:34;6.03;;;2.77;;
1004;SDS011;491;53.480;10.174;2022-11-20T00:41:01;5.93;;;3.20;;
1004;SDS011;491;53.480;10.174;2022-11-20T00:43:27;2.37;;;1.70;;
1004;SDS011;491;53.480;10.174;2022-11-20T00:45:57;5.30;;;2.40;;
1004;SDS011;491;53.480;10.174;2022-11-20T00:48:23;1.97;;;1.77;;
1004;SDS011;491;53.480;10.174;2022-11-20T00:50:49;4.77;;;1.70;;
1004;SDS011;491;53.480;10.174;2022-11-20T00:53:15;2.83;;;1.90;;
1004;SDS011;491;53.480;10.174;2022-11-20T00:55:41;4.60;;;2.07;;
1004;SDS011;491;53.480;10.174;2022-11-20T00:58:07;4.20;;;2.03;;
1004;SDS011;491;53.480;10.174;2022-11-20T01:00:33;3.43;;;2.67;;
1004;SDS011;491;53.480;10.174;2022-11-20T01:02:59;5.23;;;2.73;;
1004;SDS011;491;53.480;10.174;2022-11-20T01:05:25;5.13;;;2.70;;
1004;SDS011;491;53.480;10.174;2022-11-20T01:07:51;1.80;;;1.20;;
1004;SDS011;491;53.480;10.174;2022-11-20T01:10:17;3.27;;;1.77;;
1004;SDS011;491;53.480;10.174;2022-11-20T01:12:43;3.10;;;2.57;;
1004;SDS011;491;53.480;10.174;2022-11-20T01:15:29;9.57;;;3.50;;
1004;SDS011;491;53.480;10.174;2022-11-20T01:17:55;3.53;;;2.40;;
1004;SDS011;491;53.480;10.174;2022-11-20T01:20:21;3.97;;;1.87;;
1004;SDS011;491;53.480;10.174;2022-11-20T01:22:46;3.60;;;2.10;;
1004;SDS011;491;53.480;10.174;2022-11-20T01:25:12;3.07;;;2.20;;
1004;SDS011;491;53.480;10.174;2022-11-20T01:27:38;2.10;;;1.83;;
1004;SDS011;491;53.480;10.174;2022-11-20T01:30:04;2.80;;;2.20;;
1004;SDS011;491;53.480;10.174;2022-11-20T01:32:30;4.47;;;2.20;;
1004;SDS011;491;53.480;10.174;2022-11-20T01:34:56;5.03;;;2.50;;
1004;SDS011;491;53.480;10.174;2022-11-20T01:37:22;3.53;;;1.90;;
1004;SDS011;491;53.480;10.174;2022-11-20T01:39:48;3.03;;;2.00;;
1004;SDS011;491;53.480;10.174;2022-11-20T01:42:14;3.30;;;1.93;;
1004;SDS011;491;53.480;10.174;2022-11-20T01:44:59;4.50;;;1.93;;
1004;SDS011;491;53.480;10.174;2022-11-20T01:47:27;9.40;;;2.07;;
1004;SDS011;491;53.480;10.174;2022-11-20T01:49:56;3.80;;;2.40;;
1004;SDS011;491;53.480;10.174;2022-11-20T01:52:24;3.50;;;1.60;;
1004;SDS011;491;53.480;10.174;2022-11-20T01:54:55;6.73;;;2.50;;
1004;SDS011;491;53.480;10.174;2022-11-20T01:57:21;3.00;;;1.97;;
1004;SDS011;491;53.480;10.174;2022-11-20T01:59:51;2.33;;;1.57;;
1004;SDS011;491;53.480;10.174;2022-11-20T02:02:19;2.80;;;2.03;;
1004;SDS011;491;53.480;10.174;2022-11-20T02:04:45;2.50;;;1.13;;
1004;SDS011;491;53.480;10.174;2022-11-20T02:07:12;3.70;;;2.50;;
1004;SDS011;491;53.480;10.174;2022-11-20T02:09:38;2.70;;;1.70;;
1004;SDS011;491;53.480;10.174;2022-11-20T02:12:04;3.07;;;1.60;;
1004;SDS011;491;53.480;10.174;2022-11-20T02:14:51;3.10;;;1.47;;
1004;SDS011;491;53.480;10.174;2022-11-20T02:17:16;3.63;;;2.30;;
1004;SDS011;491;53.480;10.174;2022-11-20T02:19:42;6.60;;;3.67;;
1004;SDS011;491;53.480;10.174;2022-11-20T02:22:11;2.37;;;1.33;;
1004;SDS011;491;53.480;10.174;2022-11-20T02:24:39;5.03;;;2.43;;
1004;SDS011;491;53.480;10.174;2022-11-20T02:29:40;4.57;;;2.40;;
1004;SDS011;491;53.480;10.174;2022-11-20T02:32:17;3.50;;;1.67;;
1004;SDS011;491;53.480;10.174;2022-11-20T02:34:44;4.20;;;2.10;;
1004;SDS011;491;53.480;10.174;2022-11-20T02:37:10;2.93;;;1.73;;
1004;SDS011;491;53.480;10.174;2022-11-20T02:39:36;5.40;;;2.30;;
1004;SDS011;491;53.480;10.174;2022-11-20T02:42:01;4.03;;;1.67;;
1004;SDS011;491;53.480;10.174;2022-11-20T02:44:27;4.33;;;2.37;;
1004;SDS011;491;53.480;10.174;2022-11-20T02:46:56;5.37;;;1.83;;
1004;SDS011;491;53.480;10.174;2022-11-20T02:49:22;4.30;;;2.27;;
1004;SDS011;491;53.480;10.174;2022-11-20T02:51:48;6.13;;;2.40;;
1004;SDS011;491;53.480;10.174;2022-11-20T02:54:14;3.83;;;1.73;;
1004;SDS011;491;53.480;10.174;2022-11-20T02:56:40;2.30;;;1.73;;
1004;SDS011;491;53.480;10.174;2022-11-20T02:59:06;4.37;;;2.93;;
1004;SDS011;491;53.480;10.174;2022-11-20T03:01:32;2.40;;;1.80;;
1004;SDS011;491;53.480;10.174;2022-11-20T03:03:58;4.27;;;2.73;;
1004;SDS011;491;53.480;10.174;2022-11-20T03:06:24;2.33;;;1.30;;
1004;SDS011;491;53.480;10.174;2022-11-20T03:08:49;5.80;;;2.03;;
1004;SDS011;491;53.480;10.174;2022-11-20T03:11:15;2.30;;;1.83;;
1004;SDS011;491;53.480;10.174;2022-11-20T03:13:42;4.03;;;2.00;;
1004;SDS011;491;53.480;10.174;2022-11-20T03:16:12;6.10;;;2.53;;
1004;SDS011;491;53.480;10.174;2022-11-20T03:18:38;5.87;;;3.20;;
1004;SDS011;491;53.480;10.174;2022-11-20T03:21:05;5.47;;;3.43;;
1004;SDS011;491;53.480;10.174;2022-11-20T03:23:31;4.70;;;2.57;;
1004;SDS011;491;53.480;10.174;2022-11-20T03:26:17;3.57;;;2.20;;
1004;SDS011;491;53.480;10.174;2022-11-20T03:28:47;4.57;;;2.43;;
1004;SDS011;491;53.480;10.174;2022-11-20T03:31:14;3.07;;;1.97;;
1004;SDS011;491;53.480;10.174;2022-11-20T03:33:41;4.57;;;2.23;;
1004;SDS011;491;53.480;10.174;2022-11-20T03:36:08;2.23;;;1.33;;
1004;SDS011;491;53.480;10.174;2022-11-20T03:38:35;3.13;;;2.33;;
1004;SDS011;491;53.480;10.174;2022-11-20T03:41:02;2.60;;;1.90;;
1004;SDS011;491;53.480;10.174;2022-11-20T03:43:28;3.60;;;1.87;;
1004;SDS011;491;53.480;10.174;2022-11-20T03:45:54;3.30;;;1.40;;
1004;SDS011;491;53.480;10.174;2022-11-20T03:48:20;7.17;;;3.40;;
1004;SDS011;491;53.480;10.174;2022-11-20T03:50:46;4.40;;;2.57;;
1004;SDS011;491;53.480;10.174;2022-11-20T03:53:12;6.10;;;2.83;;
1004;SDS011;491;53.480;10.174;2022-11-20T03:55:38;2.73;;;1.60;;
1004;SDS011;491;53.480;10.174;2022-11-20T03:58:04;6.13;;;2.13;;
1004;SDS011;491;53.480;10.174;2022-11-20T04:00:30;5.23;;;2.70;;
1004;SDS011;491;53.480;10.174;2022-11-20T04:03:00;3.23;;;2.23;;
1004;SDS011;491;53.480;10.174;2022-11-20T04:05:26;4.27;;;2.37;;
1004;SDS011;491;53.480;10.174;2022-11-20T04:07:52;3.70;;;1.63;;
1004;SDS011;491;53.480;10.174;2022-11-20T04:10:18;3.37;;;1.87;;
1004;SDS011;491;53.480;10.174;2022-11-20T04:12:44;3.90;;;2.57;;
1004;SDS011;491;53.480;10.174;2022-11-20T04:15:10;7.80;;;2.00;;
1004;SDS011;491;53.480;10.174;2022-11-20T04:17:36;5.37;;;2.63;;
1004;SDS011;491;53.480;10.174;2022-11-20T04:20:02;5.63;;;2.00;;
1004;SDS011;491;53.480;10.174;2022-11-20T04:22:28;3.33;;;2.30;;
1004;SDS011;491;53.480;10.174;2022-11-20T04:24:54;3.73;;;2.50;;
1004;SDS011;491;53.480;10.174;2022-11-20T04:27:20;3.90;;;1.83;;
1004;SDS011;491;53.480;10.174;2022-11-20T04:29:46;4.33;;;2.60;;
1004;SDS011;491;53.480;10.174;2022-11-20T04:32:12;4.30;;;1.90;;
1004;SDS011;491;53.480;10.174;2022-11-20T04:34:38;4.57;;;2.80;;
1004;SDS011;491;53.480;10.174;2022-11-20T04:37:03;3.97;;;1.90;;
1004;SDS011;491;53.480;10.174;2022-11-20T04:39:30;3.83;;;1.90;;
1004;SDS011;491;53.480;10.174;2022-11-20T04:41:55;2.60;;;1.70;;
1004;SDS011;491;53.480;10.174;2022-11-20T04:44:40;3.57;;;3.00;;
1004;SDS011;491;53.480;10.174;2022-11-20T04:47:07;2.17;;;1.43;;
1004;SDS011;491;53.480;10.174;2022-11-20T04:49:33;6.23;;;3.40;;
1004;SDS011;491;53.480;10.174;2022-11-20T04:51:59;3.60;;;2.40;;
1004;SDS011;491;53.480;10.174;2022-11-20T04:54:25;5.43;;;2.80;;
1004;SDS011;491;53.480;10.174;2022-11-20T04:56:51;4.03;;;1.80;;
1004;SDS011;491;53.480;10.174;2022-11-20T04:59:17;3.37;;;2.20;;
1004;SDS011;491;53.480;10.174;2022-11-20T05:01:43;2.73;;;1.70;;
1004;SDS011;491;53.480;10.174;2022-11-20T05:04:09;5.60;;;2.67;;
1004;SDS011;491;53.480;10.174;2022-11-20T05:06:34;3.80;;;2.70;;
1004;SDS011;491;53.480;10.174;2022-11-20T05:09:00;3.70;;;2.00;;
1004;SDS011;491;53.480;10.174;2022-11-20T05:11:27;4.00;;;2.70;;
1004;SDS011;491;53.480;10.174;2022-11-20T05:13:57;3.17;;;2.10;;
1004;SDS011;491;53.480;10.174;2022-11-20T05:16:23;3.83;;;2.17;;
1004;SDS011;491;53.480;10.174;2022-11-20T05:18:50;3.00;;;2.17;;
1004;SDS011;491;53.480;10.174;2022-11-20T05:21:17;2.73;;;2.13;;
1004;SDS011;491;53.480;10.174;2022-11-20T05:23:43;3.20;;;2.20;;
1004;SDS011;491;53.480;10.174;2022-11-20T05:26:16;4.00;;;2.10;;
1004;SDS011;491;53.480;10.174;2022-11-20T05:28:43;3.90;;;2.17;;
1004;SDS011;491;53.480;10.174;2022-11-20T05:31:13;4.33;;;2.80;;
1004;SDS011;491;53.480;10.174;2022-11-20T05:33:39;2.77;;;1.87;;
1004;SDS011;491;53.480;10.174;2022-11-20T05:36:05;3.53;;;2.30;;
1004;SDS011;491;53.480;10.174;2022-11-20T05:38:32;3.50;;;1.90;;
1004;SDS011;491;53.480;10.174;2022-11-20T05:41:05;2.50;;;1.47;;
1004;SDS011;491;53.480;10.174;2022-11-20T05:43:34;3.70;;;2.57;;
1004;SDS011;491;53.480;10.174;2022-11-20T05:46:01;4.53;;;2.97;;
1004;SDS011;491;53.480;10.174;2022-11-20T05:48:27;4.50;;;2.67;;
1004;SDS011;491;53.480;10.174;2022-11-20T05:50:53;3.53;;;2.17;;
1004;SDS011;491;53.480;10.174;2022-11-20T05:53:19;3.20;;;1.70;;
1004;SDS011;491;53.480;10.174;2022-11-20T05:55:44;5.20;;;2.60;;
1004;SDS011;491;53.480;10.174;2022-11-20T05:58:10;3.70;;;2.87;;
1004;SDS011;491;53.480;10.174;2022-11-20T06:00:36;5.00;;;2.57;;
1004;SDS011;491;53.480;10.174;2022-11-20T06:03:02;2.93;;;1.60;;
1004;SDS011;491;53.480;10.174;2022-11-20T06:05:28;3.50;;;2.63;;
1004;SDS011;491;53.480;10.174;2022-11-20T06:07:54;2.13;;;1.77;;
1004;SDS011;491;53.480;10.174;2022-11-20T06:10:20;3.10;;;2.30;;
1004;SDS011;491;53.480;10.174;2022-11-20T06:12:46;4.60;;;2.87;;
1004;SDS011;491;53.480;10.174;2022-11-20T06:15:12;3.17;;;2.40;;
1004;SDS011;491;53.480;10.174;2022-11-20T06:17:38;3.23;;;1.93;;
1004;SDS011;491;53.480;10.174;2022-11-20T06:20:04;3.47;;;2.43;;
1004;SDS011;491;53.480;10.174;2022-11-20T06:22:30;4.30;;;2.13;;
1004;SDS011;491;53.480;10.174;2022-11-20T06:24:57;4.50;;;2.73;;
1004;SDS011;491;53.480;10.174;2022-11-20T06:27:23;6.70;;;2.83;;
1004;SDS011;491;53.480;10.174;2022-11-20T06:29:49;3.03;;;2.00;;
1004;SDS011;491;53.480;10.174;2022-11-20T06:32:15;4.17;;;2.30;;
1004;SDS011;491;53.480;10.174;2022-11-20T06:34:41;4.47;;;1.60;;
1004;SDS011;491;53.480;10.174;2022-11-20T06:37:06;4.73;;;3.03;;
1004;SDS011;491;53.480;10.174;2022-11-20T06:39:32;6.20;;;2.30;;
1004;SDS011;491;53.480;10.174;2022-11-20T06:41:58;2.60;;;1.90;;
1004;SDS011;491;53.480;10.174;2022-11-20T06:44:24;6.23;;;2.60;;
1004;SDS011;491;53.480;10.174;2022-11-20T06:46:50;4.00;;;2.20;;
1004;SDS011;491;53.480;10.174;2022-11-20T06:49:16;5.43;;;1.73;;
1004;SDS011;491;53.480;10.174;2022-11-20T06:51:42;2.60;;;1.63;;
1004;SDS011;491;53.480;10.174;2022-11-20T06:54:08;2.40;;;1.27;;
1004;SDS011;491;53.480;10.174;2022-11-20T06:56:34;3.10;;;2.40;;
1004;SDS011;491;53.480;10.174;2022-11-20T06:59:03;5.00;;;2.60;;
1004;SDS011;491;53.480;10.174;2022-11-20T07:01:29;4.10;;;2.53;;
1004;SDS011;491;53.480;10.174;2022-11-20T07:03:55;3.17;;;2.37;;
1004;SDS011;491;53.480;10.174;2022-11-20T07:06:20;6.90;;;2.83;;
1004;SDS011;491;53.480;10.174;2022-11-20T07:08:46;3.33;;;2.97;;
1004;SDS011;491;53.480;10.174;2022-11-20T07:11:12;4.70;;;2.10;;
1004;SDS011;491;53.480;10.174;2022-11-20T07:13:38;7.83;;;3.80;;
1004;SDS011;491;53.480;10.174;2022-11-20T07:16:05;2.53;;;2.10;;
1004;SDS011;491;53.480;10.174;2022-11-20T07:18:32;2.90;;;1.70;;
1004;SDS011;491;53.480;10.174;2022-11-20T07:21:02;2.13;;;1.93;;
1004;SDS011;491;53.480;10.174;2022-11-20T07:23:28;2.83;;;1.90;;
1004;SDS011;491;53.480;10.174;2022-11-20T07:25:54;5.20;;;3.27;;
1004;SDS011;491;53.480;10.174;2022-11-20T07:28:19;6.33;;;2.80;;
1004;SDS011;491;53.480;10.174;2022-11-20T07:30:49;4.37;;;2.93;;
1004;SDS011;491;53.480;10.174;2022-11-20T07:33:15;7.70;;;3.73;;
1004;SDS011;491;53.480;10.174;2022-11-20T07:35:41;4.20;;;2.90;;
1004;SDS011;491;53.480;10.174;2022-11-20T07:38:07;3.50;;;2.20;;
1004;SDS011;491;53.480;10.174;2022-11-20T07:40:33;5.60;;;3.17;;
1004;SDS011;491;53.480;10.174;2022-11-20T07:42:59;5.40;;;3.10;;
1004;SDS011;491;53.480;10.174;2022-11-20T07:45:24;4.67;;;2.70;;
1004;SDS011;491;53.480;10.174;2022-11-20T07:47:50;5.70;;;3.17;;
1004;SDS011;491;53.480;10.174;2022-11-20T07:50:17;5.30;;;3.57;;
1004;SDS011;491;53.480;10.174;2022-11-20T07:52:43;4.70;;;2.97;;
1004;SDS011;491;53.480;10.174;2022-11-20T07:55:09;8.83;;;3.20;;
1004;SDS011;491;53.480;10.174;2022-11-20T07:57:35;4.93;;;2.97;;
1004;SDS011;491;53.480;10.174;2022-11-20T08:00:01;4.40;;;3.43;;
1004;SDS011;491;53.480;10.174;2022-11-20T08:02:28;4.23;;;2.50;;
1004;SDS011;491;53.480;10.174;2022-11-20T08:04:53;3.80;;;3.00;;
1004;SDS011;491;53.480;10.174;2022-11-20T08:07:19;3.70;;;2.40;;
1004;SDS011;491;53.480;10.174;2022-11-20T08:09:45;4.17;;;2.73;;
1004;SDS011;491;53.480;10.174;2022-11-20T08:12:18;4.63;;;3.17;;
1004;SDS011;491;53.480;10.174;2022-11-20T08:15:04;3.80;;;2.33;;
1004;SDS011;491;53.480;10.174;2022-11-20T08:17:30;6.00;;;3.27;;
1004;SDS011;491;53.480;10.174;2022-11-20T08:19:56;6.00;;;4.10;;
1004;SDS011;491;53.480;10.174;2022-11-20T08:22:22;6.30;;;4.00;;
1004;SDS011;491;53.480;10.174;2022-11-20T08:24:48;4.90;;;3.20;;
1004;SDS011;491;53.480;10.174;2022-11-20T08:27:14;5.43;;;3.80;;
1004;SDS011;491;53.480;10.174;2022-11-20T08:29:40;6.57;;;4.07;;
1004;SDS011;491;53.480;10.174;2022-11-20T08:32:06;8.27;;;5.00;;
1004;SDS011;491;53.480;10.174;2022-11-20T08:34:32;9.90;;;6.07;;
1004;SDS011;491;53.480;10.174;2022-11-20T08:36:58;7.10;;;5.07;;
1004;SDS011;491;53.480;10.174;2022-11-20T08:39:24;10.10;;;6.10;;
1004;SDS011;491;53.480;10.174;2022-11-20T08:41:50;7.73;;;5.50;;
1004;SDS011;491;53.480;10.174;2022-11-20T08:44:16;9.80;;;6.80;;
1004;SDS011;491;53.480;10.174;2022-11-20T08:46:42;7.90;;;5.60;;
1004;SDS011;491;53.480;10.174;2022-11-20T08:49:09;8.17;;;5.97;;
1004;SDS011;491;53.480;10.174;2022-11-20T08:51:36;8.73;;;4.87;;
1004;SDS011;491;53.480;10.174;2022-11-20T08:54:02;7.80;;;5.07;;
1004;SDS011;491;53.480;10.174;2022-11-20T08:56:29;7.70;;;4.90;;
1004;SDS011;491;53.480;10.174;2022-11-20T08:58:55;7.40;;;5.07;;
1004;SDS011;491;53.480;10.174;2022-11-20T09:01:21;4.97;;;4.40;;
1004;SDS011;491;53.480;10.174;2022-11-20T09:03:48;9.17;;;6.07;;
1004;SDS011;491;53.480;10.174;2022-11-20T09:06:14;7.20;;;4.37;;
1004;SDS011;491;53.480;10.174;2022-11-20T09:08:40;6.40;;;3.80;;
1004;SDS011;491;53.480;10.174;2022-11-20T09:11:06;5.87;;;3.17;;
1004;SDS011;491;53.480;10.174;2022-11-20T09:13:33;4.37;;;2.30;;
1004;SDS011;491;53.480;10.174;2022-11-20T09:16:00;5.20;;;2.57;;
1004;SDS011;491;53.480;10.174;2022-11-20T09:18:27;3.37;;;1.57;;
1004;SDS011;491;53.480;10.174;2022-11-20T09:21:00;2.77;;;1.53;;
1004;SDS011;491;53.480;10.174;2022-11-20T09:23:26;4.80;;;1.77;;
1004;SDS011;491;53.480;10.174;2022-11-20T09:25:56;2.67;;;1.70;;
1004;SDS011;491;53.480;10.174;2022-11-20T09:28:24;1.30;;;1.07;;
1004;SDS011;491;53.480;10.174;2022-11-20T09:30:50;1.80;;;0.83;;
1004;SDS011;491;53.480;10.174;2022-11-20T09:33:17;1.97;;;1.20;;
1004;SDS011;491;53.480;10.174;2022-11-20T09:35:43;2.27;;;0.83;;
1004;SDS011;491;53.480;10.174;2022-11-20T09:38:10;2.40;;;1.60;;
1004;SDS011;491;53.480;10.174;2022-11-20T09:40:37;1.40;;;0.97;;
1004;SDS011;491;53.480;10.174;2022-11-20T09:43:10;2.00;;;1.07;;
1004;SDS011;491;53.480;10.174;2022-11-20T09:45:49;2.50;;;1.80;;
1004;SDS011;491;53.480;10.174;2022-11-20T09:56:29;3.03;;;1.33;;
1004;SDS011;491;53.480;10.174;2022-11-20T09:58:57;3.83;;;1.33;;
1004;SDS011;491;53.480;10.174;2022-11-20T10:01:30;1.40;;;0.90;;
1004;SDS011;491;53.480;10.174;2022-11-20T10:04:01;4.73;;;1.47;;
1004;SDS011;491;53.480;10.174;2022-11-20T10:08:59;1.37;;;1.07;;
1004;SDS011;491;53.480;10.174;2022-11-20T10:11:33;2.77;;;2.07;;
1004;SDS011;491;53.480;10.174;2022-11-20T10:14:16;2.70;;;1.47;;
1004;SDS011;491;53.480;10.174;2022-11-20T10:19:24;4.10;;;2.33;;
1004;SDS011;491;53.480;10.174;2022-11-20T10:24:44;1.57;;;1.03;;
1004;SDS011;491;53.480;10.174;2022-11-20T10:27:30;2.40;;;1.70;;
1004;SDS011;491;53.480;10.174;2022-11-20T10:30:00;4.80;;;2.07;;
1004;SDS011;491;53.480;10.174;2022-11-20T10:32:29;2.80;;;1.40;;
1004;SDS011;491;53.480;10.174;2022-11-20T10:35:06;3.47;;;1.47;;
1004;SDS011;491;53.480;10.174;2022-11-20T10:37:35;2.03;;;1.33;;
1004;SDS011;491;53.480;10.174;2022-11-20T10:42:48;2.77;;;1.03;;
1004;SDS011;491;53.480;10.174;2022-11-20T10:48:12;2.73;;;2.00;;
1004;SDS011;491;53.480;10.174;2022-11-20T10:50:40;2.20;;;2.00;;
1004;SDS011;491;53.480;10.174;2022-11-20T10:56:10;3.50;;;1.23;;
1004;SDS011;491;53.480;10.174;2022-11-20T10:58:42;3.10;;;2.20;;
1004;SDS011;491;53.480;10.174;2022-11-20T11:01:17;2.00;;;1.00;;
1004;SDS011;491;53.480;10.174;2022-11-20T11:03:44;2.77;;;1.50;;
1004;SDS011;491;53.480;10.174;2022-11-20T11:06:13;1.60;;;1.13;;
1004;SDS011;491;53.480;10.174;2022-11-20T11:08:40;1.60;;;0.80;;
1004;SDS011;491;53.480;10.174;2022-11-20T11:11:25;1.50;;;1.00;;
1004;SDS011;491;53.480;10.174;2022-11-20T11:13:53;2.20;;;0.93;;
1004;SDS011;491;53.480;10.174;2022-11-20T11:16:20;2.23;;;1.53;;
1004;SDS011;491;53.480;10.174;2022-11-20T11:18:46;2.43;;;1.23;;
1004;SDS011;491;53.480;10.174;2022-11-20T11:21:12;2.30;;;1.50;;
1004;SDS011;491;53.480;10.174;2022-11-20T11:23:39;1.30;;;0.70;;
1004;SDS011;491;53.480;10.174;2022-11-20T11:26:06;1.90;;;1.30;;
1004;SDS011;491;53.480;10.174;2022-11-20T11:28:32;1.83;;;0.90;;
1004;SDS011;491;53.480;10.174;2022-11-20T11:30:58;2.10;;;1.30;;
1004;SDS011;491;53.480;10.174;2022-11-20T11:33:25;2.70;;;1.20;;
1004;SDS011;491;53.480;10.174;2022-11-20T11:35:52;1.80;;;0.80;;
1004;SDS011;491;53.480;10.174;2022-11-20T11:38:38;1.57;;;1.17;;
1004;SDS011;491;53.480;10.174;2022-11-20T11:41:05;2.40;;;1.63;;
1004;SDS011;491;53.480;10.174;2022-11-20T11:43:32;1.77;;;1.67;;
1004;SDS011;491;53.480;10.174;2022-11-20T11:46:28;2.17;;;1.30;;
1004;SDS011;491;53.480;10.174;2022-11-20T11:48:57;1.53;;;1.20;;
1004;SDS011;491;53.480;10.174;2022-11-20T11:51:28;2.03;;;1.20;;
1004;SDS011;491;53.480;10.174;2022-11-20T11:53:55;1.70;;;1.03;;
1004;SDS011;491;53.480;10.174;2022-11-20T11:56:22;3.07;;;1.70;;
1004;SDS011;491;53.480;10.174;2022-11-20T11:58:50;1.93;;;1.60;;
1004;SDS011;491;53.480;10.174;2022-11-20T12:01:20;3.43;;;1.23;;
1004;SDS011;491;53.480;10.174;2022-11-20T12:03:58;2.03;;;1.27;;
1004;SDS011;491;53.480;10.174;2022-11-20T12:06:25;2.97;;;1.00;;
1004;SDS011;491;53.480;10.174;2022-11-20T12:08:55;2.00;;;0.97;;
1004;SDS011;491;53.480;10.174;2022-11-20T12:11:24;1.83;;;1.23;;
1004;SDS011;491;53.480;10.174;2022-11-20T12:14:00;1.77;;;1.13;;
1004;SDS011;491;53.480;10.174;2022-11-20T12:16:29;2.10;;;1.77;;
1004;SDS011;491;53.480;10.174;2022-11-20T12:18:56;2.77;;;1.80;;
1004;SDS011;491;53.480;10.174;2022-11-20T12:26:27;1.50;;;1.00;;
1004;SDS011;491;53.480;10.174;2022-11-20T12:29:01;2.27;;;1.40;;
1004;SDS011;491;53.480;10.174;2022-11-20T12:31:41;1.43;;;0.90;;
1004;SDS011;491;53.480;10.174;2022-11-20T12:37:07;1.20;;;1.07;;
1004;SDS011;491;53.480;10.174;2022-11-20T12:39:40;1.77;;;1.10;;
1004;SDS011;491;53.480;10.174;2022-11-20T12:42:13;1.20;;;0.67;;
1004;SDS011;491;53.480;10.174;2022-11-20T12:55:28;0.97;;;0.60;;
1004;SDS011;491;53.480;10.174;2022-11-20T13:00:47;1.83;;;0.73;;
1004;SDS011;491;53.480;10.174;2022-11-20T13:08:16;1.23;;;0.70;;
1004;SDS011;491;53.480;10.174;2022-11-20T13:11:02;1.93;;;0.53;;
1004;SDS011;491;53.480;10.174;2022-11-20T13:13:31;1.13;;;0.70;;
1004;SDS011;491;53.480;10.174;2022-11-20T13:18:28;1.40;;;0.50;;
1004;SDS011;491;53.480;10.174;2022-11-20T13:20:59;1.80;;;0.80;;
1004;SDS011;491;53.480;10.174;2022-11-20T13:23:28;1.70;;;1.23;;
1004;SDS011;491;53.480;10.174;2022-11-20T13:26:03;1.00;;;0.70;;
1004;SDS011;491;53.480;10.174;2022-11-20T13:28:29;1.73;;;0.87;;
1004;SDS011;491;53.480;10.174;2022-11-20T13:30:56;1.10;;;0.60;;
1004;SDS011;491;53.480;10.174;2022-11-20T13:33:27;1.27;;;0.80;;
1004;SDS011;491;53.480;10.174;2022-11-20T13:35:55;1.47;;;0.80;;
1004;SDS011;491;53.480;10.174;2022-11-20T13:38:21;1.53;;;0.40;;
1004;SDS011;491;53.480;10.174;2022-11-20T13:40:57;5.33;;;0.70;;
1004;SDS011;491;53.480;10.174;2022-11-20T13:46:03;1.47;;;0.80;;
1004;SDS011;491;53.480;10.174;2022-11-20T13:48:39;0.90;;;0.40;;
1004;SDS011;491;53.480;10.174;2022-11-20T13:51:22;1.47;;;0.93;;
1004;SDS011;491;53.480;10.174;2022-11-20T13:56:21;1.10;;;0.90;;
1004;SDS011;491;53.480;10.174;2022-11-20T13:58:53;3.30;;;1.00;;
1004;SDS011;491;53.480;10.174;2022-11-20T14:01:22;1.93;;;0.50;;
1004;SDS011;491;53.480;10.174;2022-11-20T14:03:49;1.90;;;0.60;;
1004;SDS011;491;53.480;10.174;2022-11-20T14:08:45;1.80;;;1.07;;
1004;SDS011;491;53.480;10.174;2022-11-20T14:11:21;1.47;;;0.40;;
1004;SDS011;491;53.480;10.174;2022-11-20T14:16:21;2.30;;;0.93;;
1004;SDS011;491;53.480;10.174;2022-11-20T14:18:48;2.13;;;0.77;;
1004;SDS011;491;53.480;10.174;2022-11-20T14:21:27;2.23;;;1.20;;
1004;SDS011;491;53.480;10.174;2022-11-20T14:24:12;3.27;;;1.60;;
1004;SDS011;491;53.480;10.174;2022-11-20T14:26:42;1.57;;;0.93;;
1004;SDS011;491;53.480;10.174;2022-11-20T14:29:18;1.40;;;0.90;;
1004;SDS011;491;53.480;10.174;2022-11-20T14:31:45;2.03;;;1.73;;
1004;SDS011;491;53.480;10.174;2022-11-20T14:34:15;1.97;;;1.37;;
1004;SDS011;491;53.480;10.174;2022-11-20T14:36:42;2.20;;;2.00;;
1004;SDS011;491;53.480;10.174;2022-11-20T14:39:10;2.97;;;1.40;;
1004;SDS011;491;53.480;10.174;2022-11-20T14:41:37;2.67;;;1.83;;
1004;SDS011;491;53.480;10.174;2022-11-20T14:44:02;2.50;;;1.87;;
1004;SDS011;491;53.480;10.174;2022-11-20T14:46:29;2.20;;;1.17;;
1004;SDS011;491;53.480;10.174;2022-11-20T14:48:56;2.50;;;1.30;;
1004;SDS011;491;53.480;10.174;2022-11-20T14:51:27;2.47;;;0.70;;
1004;SDS011;491;53.480;10.174;2022-11-20T14:53:53;2.90;;;1.03;;
1004;SDS011;491;53.480;10.174;2022-11-20T14:56:23;2.40;;;1.17;;
1004;SDS011;491;53.480;10.174;2022-11-20T14:58:55;4.60;;;1.57;;
1004;SDS011;491;53.480;10.174;2022-11-20T15:01:26;2.13;;;1.70;;
1004;SDS011;491;53.480;10.174;2022-11-20T15:03:58;1.70;;;0.93;;
1004;SDS011;491;53.480;10.174;2022-11-20T15:06:25;1.60;;;1.20;;
1004;SDS011;491;53.480;10.174;2022-11-20T15:08:51;2.47;;;1.67;;
1004;SDS011;491;53.480;10.174;2022-11-20T15:11:18;2.57;;;1.57;;
1004;SDS011;491;53.480;10.174;2022-11-20T15:13:45;2.10;;;0.87;;
1004;SDS011;491;53.480;10.174;2022-11-20T15:16:18;1.80;;;1.27;;
1004;SDS011;491;53.480;10.174;2022-11-20T15:18:44;3.80;;;2.10;;
1004;SDS011;491;53.480;10.174;2022-11-20T15:21:11;3.10;;;1.83;;
1004;SDS011;491;53.480;10.174;2022-11-20T15:23:37;2.90;;;1.60;;
1004;SDS011;491;53.480;10.174;2022-11-20T15:26:06;3.50;;;2.10;;
1004;SDS011;491;53.480;10.174;2022-11-20T15:28:33;4.43;;;1.43;;
1004;SDS011;491;53.480;10.174;2022-11-20T15:31:00;4.03;;;1.50;;
1004;SDS011;491;53.480;10.174;2022-11-20T15:33:28;4.40;;;1.70;;
1004;SDS011;491;53.480;10.174;2022-11-20T15:35:53;2.50;;;1.47;;
1004;SDS011;491;53.480;10.174;2022-11-20T15:38:19;2.33;;;1.93;;
1004;SDS011;491;53.480;10.174;2022-11-20T15:40:46;4.00;;;1.77;;
1004;SDS011;491;53.480;10.174;2022-11-20T15:43:12;2.67;;;1.67;;
1004;SDS011;491;53.480;10.174;2022-11-20T15:48:04;2.40;;;1.57;;
1004;SDS011;491;53.480;10.174;2022-11-20T15:50:41;6.57;;;2.30;;
1004;SDS011;491;53.480;10.174;2022-11-20T15:53:09;4.20;;;2.17;;
1004;SDS011;491;53.480;10.174;2022-11-20T15:55:35;2.43;;;1.60;;
1004;SDS011;491;53.480;10.174;2022-11-20T15:58:01;2.33;;;1.17;;
1004;SDS011;491;53.480;10.174;2022-11-20T16:00:28;3.00;;;1.03;;
1004;SDS011;491;53.480;10.174;2022-11-20T16:02:54;2.17;;;1.03;;
1004;SDS011;491;53.480;10.174;2022-11-20T16:05:20;2.10;;;1.30;;
1004;SDS011;491;53.480;10.174;2022-11-20T16:07:48;4.50;;;1.77;;
1004;SDS011;491;53.480;10.174;2022-11-20T16:10:14;3.37;;;1.63;;
1004;SDS011;491;53.480;10.174;2022-11-20T16:12:41;2.97;;;1.40;;
1004;SDS011;491;53.480;10.174;2022-11-20T16:15:25;4.90;;;1.70;;
1004;SDS011;491;53.480;10.174;2022-11-20T16:18:10;2.03;;;0.90;;
1004;SDS011;491;53.480;10.174;2022-11-20T16:20:36;3.60;;;1.87;;
1004;SDS011;491;53.480;10.174;2022-11-20T16:23:02;4.40;;;1.53;;
1004;SDS011;491;53.480;10.174;2022-11-20T16:25:28;5.83;;;2.07;;
1004;SDS011;491;53.480;10.174;2022-11-20T16:27:54;3.37;;;1.60;;
1004;SDS011;491;53.480;10.174;2022-11-20T16:30:20;1.53;;;1.30;;